Time;durP1;ratioP1;P1;durP2;ratioP2;P2;SDS_P1;SDS_P2;PMS_P1;PMS_P2;Temp;Humidity;BMP_temperature;BMP_pressure;BME280_temperature;BME280_humidity;BME280_pressure;Samples;Min_cycle;Max_cycle;Signal;HPM_P1;HPM_P2
2023/12/15 00:00:04;;;;;;;41.90;25.23;;;3.90;99.90;;;2.92;100.00;101979.06;5074117;28;20221;-73
2023/12/15 00:02:33;;;;;;;37.83;23.17;;;3.90;99.90;;;2.91;100.00;101985.31;5073794;28;20776;-73
2023/12/15 00:05:01;;;;;;;39.97;23.63;;;3.90;99.90;;;2.92;100.00;101985.22;5074068;28;20244;-73
2023/12/15 00:07:30;;;;;;;38.97;22.87;;;3.90;99.90;;;2.93;100.00;101983.44;5073896;28;20232;-73
2023/12/15 00:09:58;;;;;;;37.20;23.43;;;3.90;99.90;;;2.92;100.00;101987.00;5073724;28;20741;-73
2023/12/15 00:12:27;;;;;;;43.33;23.37;;;3.90;99.90;;;2.90;100.00;101984.47;5073891;28;20226;-73
2023/12/15 00:14:55;;;;;;;41.93;23.30;;;3.90;99.90;;;2.92;100.00;101981.72;5073953;28;20201;-73
2023/12/15 00:17:23;;;;;;;38.73;22.77;;;3.90;99.90;;;2.93;100.00;101981.66;5073870;28;20252;-73
2023/12/15 00:19:51;;;;;;;36.60;22.20;;;3.90;99.90;;;2.96;100.00;101984.13;5073790;28;20229;-73
2023/12/15 00:22:22;;;;;;;38.40;22.63;;;3.90;99.90;;;2.98;100.00;101989.31;5073768;28;20229;-73
2023/12/15 00:24:51;;;;;;;33.27;21.40;;;4.00;99.90;;;2.98;100.00;101992.81;5073053;28;20221;-73
2023/12/15 00:27:19;;;;;;;38.50;23.47;;;4.00;99.90;;;2.99;100.00;101998.97;5073767;28;20209;-73
2023/12/15 00:29:48;;;;;;;36.10;22.80;;;4.00;99.90;;;2.98;100.00;101998.13;5073416;28;20664;-73
2023/12/15 00:32:16;;;;;;;35.17;21.63;;;4.00;99.90;;;3.00;100.00;102000.69;5073153;28;20600;-73
2023/12/15 00:34:47;;;;;;;38.60;22.27;;;4.00;99.90;;;2.99;100.00;102002.47;5073682;28;20196;-73
2023/12/15 00:37:15;;;;;;;39.53;22.73;;;4.00;99.90;;;3.00;100.00;102006.84;5073660;28;20288;-73
2023/12/15 00:39:43;;;;;;;35.17;21.63;;;4.00;99.90;;;3.00;100.00;102006.84;5073161;28;20296;-73
2023/12/15 00:42:13;;;;;;;35.80;22.63;;;4.00;99.90;;;3.01;100.00;102013.81;5073866;28;20255;-73
2023/12/15 00:44:41;;;;;;;35.03;22.67;;;4.00;99.90;;;3.00;100.00;102016.56;5073239;28;20702;-73
2023/12/15 00:47:09;;;;;;;35.20;22.20;;;4.00;99.90;;;2.99;100.00;102015.72;5073207;28;20300;-73
2023/12/15 00:49:37;;;;;;;36.60;22.67;;;4.00;99.90;;;2.96;100.00;102017.66;5073170;28;20576;-73
2023/12/15 00:52:06;;;;;;;37.87;22.87;;;3.90;99.90;;;2.94;100.00;102016.91;5073069;28;20714;-73
2023/12/15 00:54:34;;;;;;;33.00;20.77;;;3.90;99.90;;;2.93;100.00;102025.75;5073423;28;20288;-73
2023/12/15 00:57:02;;;;;;;37.83;22.03;;;3.90;99.90;;;2.93;100.00;102031.91;5073431;28;20267;-73
2023/12/15 00:59:32;;;;;;;37.23;21.13;;;3.90;99.90;;;2.92;100.00;102039.91;5073320;28;20225;-73
2023/12/15 01:02:03;;;;;;;35.73;20.90;;;3.80;99.90;;;2.93;100.00;102046.94;5073277;28;20193;-73
2023/12/15 01:04:33;;;;;;;34.47;21.00;;;3.90;99.90;;;2.92;100.00;102037.28;5073313;28;20205;-73
2023/12/15 01:07:01;;;;;;;33.27;21.17;;;3.90;99.90;;;2.92;100.00;102039.91;5073327;28;20233;-73
2023/12/15 01:09:29;;;;;;;32.17;20.43;;;3.90;99.90;;;2.93;100.00;102049.56;5073304;28;20285;-73
2023/12/15 01:11:57;;;;;;;32.03;21.23;;;3.90;99.90;;;2.93;100.00;102046.94;5073123;28;20300;-73
2023/12/15 01:14:24;;;;;;;30.27;20.20;;;3.90;99.90;;;2.94;100.00;102051.28;5073237;28;20299;-73
2023/12/15 01:16:54;;;;;;;33.60;21.43;;;3.90;99.90;;;2.91;100.00;102059.38;5072913;28;20213;-73
2023/12/15 01:19:22;;;;;;;35.93;22.53;;;3.80;99.90;;;2.90;100.00;102057.66;5072864;28;20699;-73
2023/12/15 01:21:50;;;;;;;34.90;21.87;;;3.80;99.90;;;2.91;100.00;102065.50;5073067;28;20208;-73
2023/12/15 01:24:19;;;;;;;36.03;22.70;;;3.90;99.90;;;2.88;100.00;102065.66;5072841;28;20655;-73
2023/12/15 01:26:47;;;;;;;37.40;22.87;;;3.80;99.90;;;2.88;100.00;102070.97;5073726;28;20288;-73
2023/12/15 01:29:17;;;;;;;37.67;23.13;;;3.80;99.90;;;2.89;100.00;102077.09;5072783;28;20682;-73
2023/12/15 01:31:45;;;;;;;35.53;22.77;;;3.90;99.90;;;2.89;100.00;102077.97;5073283;28;20233;-73
2023/12/15 01:34:14;;;;;;;37.23;22.43;;;3.80;99.90;;;2.90;100.00;102078.81;5072661;28;20253;-73
2023/12/15 01:36:42;;;;;;;38.93;22.90;;;3.90;99.90;;;2.85;100.00;102080.84;5076032;28;20205;-73
2023/12/15 01:39:13;;;;;;;34.93;21.37;;;3.80;99.90;;;2.83;100.00;102077.44;5076827;28;20296;-73
2023/12/15 01:41:42;;;;;;;37.30;23.23;;;3.80;99.90;;;2.81;100.00;102080.13;5076889;28;20190;-73
2023/12/15 01:44:10;;;;;;;35.50;23.20;;;3.80;99.90;;;2.80;100.00;102078.44;5076804;28;20296;-73
2023/12/15 01:46:38;;;;;;;34.40;22.87;;;3.80;99.90;;;2.79;100.00;102078.50;5076459;28;20243;-73
2023/12/15 01:49:06;;;;;;;38.23;22.97;;;3.80;99.90;;;2.79;100.00;102078.50;5076388;28;20679;-73
2023/12/15 01:51:36;;;;;;;35.03;22.43;;;3.80;99.90;;;2.79;100.00;102071.44;5076588;28;20255;-73
2023/12/15 01:54:04;;;;;;;37.33;23.00;;;3.80;99.90;;;2.79;100.00;102082.03;5076524;28;20279;-73
2023/12/15 01:56:32;;;;;;;36.87;22.73;;;3.80;99.90;;;2.81;100.00;102082.78;5076583;28;20236;-73
2023/12/15 01:59:00;;;;;;;36.93;23.63;;;3.80;99.90;;;2.78;100.00;102090.00;5076287;28;20288;-73
2023/12/15 02:01:28;;;;;;;37.07;22.57;;;3.80;99.90;;;2.80;100.00;102085.53;5076490;28;20264;-73
2023/12/15 02:03:57;;;;;;;34.40;21.47;;;3.80;99.90;;;2.82;100.00;102096.88;5076476;28;20221;-73
2023/12/15 02:06:25;;;;;;;36.70;22.60;;;3.80;99.90;;;2.80;100.00;102077.59;5076506;28;20209;-73
2023/12/15 02:08:55;;;;;;;35.03;22.67;;;3.80;99.90;;;2.79;100.00;102087.31;5076097;28;20213;-73
2023/12/15 02:11:23;;;;;;;36.30;23.77;;;3.80;99.90;;;2.78;100.00;102082.94;5076373;28;20280;-73
2023/12/15 02:13:51;;;;;;;35.47;22.57;;;3.80;99.90;;;2.80;100.00;102080.22;5076203;28;20236;-73
2023/12/15 02:16:19;;;;;;;36.13;24.20;;;3.80;99.90;;;2.79;100.00;102089.09;5076226;28;20213;-73
2023/12/15 02:18:47;;;;;;;36.07;22.23;;;3.80;99.90;;;2.78;100.00;102085.59;5075880;28;20300;-73
2023/12/15 02:21:15;;;;;;;35.73;23.73;;;3.80;99.90;;;2.81;100.00;102087.25;5076023;28;20355;-73
2023/12/15 02:23:45;;;;;;;35.47;22.20;;;3.80;99.90;;;2.81;100.00;102084.59;5075675;28;20780;-73
2023/12/15 02:26:13;;;;;;;35.90;22.27;;;3.80;99.90;;;2.82;100.00;102084.50;5076065;28;20201;-73
2023/12/15 02:28:41;;;;;;;36.60;22.33;;;3.80;99.90;;;2.83;100.00;102082.72;5075639;28;20208;-73
2023/12/15 02:31:10;;;;;;;33.03;21.70;;;3.80;99.90;;;2.83;100.00;102090.66;5075929;28;20202;-73
2023/12/15 02:33:38;;;;;;;33.93;21.37;;;3.80;99.90;;;2.82;100.00;102087.16;5075543;28;20232;-73
2023/12/15 02:36:08;;;;;;;31.63;20.90;;;3.80;99.90;;;2.81;100.00;102082.78;5075889;28;20201;-73
2023/12/15 02:38:36;;;;;;;36.87;23.13;;;3.80;99.90;;;2.83;100.00;102088.00;5075431;28;20213;-73
2023/12/15 02:41:10;;;;;;;36.00;23.20;;;3.80;99.90;;;2.83;100.00;102090.66;5075426;28;20221;-73
2023/12/15 02:43:39;;;;;;;36.10;22.93;;;3.80;99.90;;;2.83;100.00;102090.66;5075705;28;20256;-73
2023/12/15 02:46:08;;;;;;;39.33;24.07;;;3.80;99.90;;;2.82;100.00;102091.56;5075657;28;20300;-73
2023/12/15 02:48:36;;;;;;;36.63;22.80;;;3.80;99.90;;;2.81;100.00;102089.88;5074725;28;20212;-73
2023/12/15 02:51:04;;;;;;;34.70;22.20;;;3.80;99.90;;;2.85;100.00;102091.41;5075562;28;20213;-73
2023/12/15 02:53:33;;;;;;;42.77;24.13;;;3.90;99.90;;;2.85;100.00;102096.72;5075156;28;20726;-73
2023/12/15 02:56:01;;;;;;;36.47;23.03;;;3.80;99.90;;;2.83;100.00;102094.16;5075190;28;20607;-73
2023/12/15 02:58:30;;;;;;;37.57;22.73;;;3.80;99.90;;;2.84;100.00;102089.72;5075399;28;20209;-73
2023/12/15 03:00:59;;;;;;;39.33;24.57;;;3.80;99.90;;;2.85;100.00;102091.41;5075056;28;20702;-73
2023/12/15 03:03:27;;;;;;;39.30;23.87;;;3.90;99.90;;;2.85;100.00;102086.13;5075136;28;20229;-73
2023/12/15 03:05:55;;;;;;;40.90;24.47;;;3.90;99.90;;;2.84;100.00;102095.84;5074937;28;20618;-73
2023/12/15 03:08:24;;;;;;;36.23;22.43;;;3.80;99.90;;;2.83;100.00;102094.16;5075231;28;20202;-73
2023/12/15 03:10:55;;;;;;;37.33;23.57;;;3.90;99.90;;;2.83;100.00;102095.94;5075185;28;20209;-73
2023/12/15 03:13:23;;;;;;;41.13;23.63;;;3.80;99.90;;;2.82;100.00;102096.88;5075179;28;20225;-73
2023/12/15 03:15:53;;;;;;;40.07;25.17;;;3.80;99.90;;;2.82;100.00;102097.72;5075117;28;20244;-73
2023/12/15 03:18:21;;;;;;;40.97;24.40;;;3.80;99.90;;;2.83;100.00;102099.44;5076147;28;20607;-73
2023/12/15 03:20:49;;;;;;;39.33;23.23;;;3.80;99.90;;;2.84;100.00;102103.78;5074915;28;20286;-73
2023/12/15 03:23:17;;;;;;;39.00;23.47;;;3.90;99.90;;;2.83;100.00;102103.88;5074842;28;20320;-73
2023/12/15 03:25:46;;;;;;;39.07;23.90;;;3.80;99.90;;;2.85;100.00;102099.34;5074939;28;20205;-73
2023/12/15 03:28:14;;;;;;;41.00;24.53;;;3.90;99.90;;;2.85;100.00;102108.16;5074534;28;20709;-73
2023/12/15 03:30:43;;;;;;;38.17;23.67;;;3.90;99.90;;;2.85;100.00;102102.00;5074816;28;20239;-73
2023/12/15 03:33:12;;;;;;;42.53;23.83;;;3.80;99.90;;;2.85;100.00;102108.16;5074332;28;20244;-73
2023/12/15 03:35:40;;;;;;;36.43;22.63;;;3.90;99.90;;;2.85;100.00;102113.44;5074679;28;20205;-73
2023/12/15 03:38:13;;;;;;;40.63;24.30;;;3.90;99.90;;;2.85;100.00;102113.44;5074353;28;20730;-73
2023/12/15 03:40:41;;;;;;;44.17;25.20;;;3.80;99.90;;;2.85;100.00;102112.56;5074545;28;20210;-73
2023/12/15 03:43:09;;;;;;;38.77;23.80;;;3.90;99.90;;;2.85;100.00;102107.28;5074460;28;20264;-73
2023/12/15 03:45:37;;;;;;;40.20;23.57;;;3.80;99.90;;;2.84;100.00;102117.00;5074518;28;20209;-73
2023/12/15 03:48:06;;;;;;;45.90;25.50;;;3.80;99.90;;;2.83;100.00;102106.53;5074468;28;20220;-73
2023/12/15 03:50:36;;;;;;;40.90;23.03;;;3.80;99.90;;;2.82;100.00;102113.59;5074136;28;20205;-73
2023/12/15 03:53:06;;;;;;;42.63;24.97;;;3.80;99.90;;;2.83;100.00;102123.25;5074064;28;20229;-73
2023/12/15 03:55:34;;;;;;;39.60;24.07;;;3.90;99.90;;;2.83;100.00;102115.31;5074330;28;20259;-73
2023/12/15 03:58:02;;;;;;;40.80;24.20;;;3.80;99.90;;;2.84;100.00;102119.66;5074204;28;20228;-73
2023/12/15 04:00:31;;;;;;;43.10;23.73;;;3.80;99.90;;;2.84;100.00;102117.00;5074186;28;20229;-73
2023/12/15 04:02:59;;;;;;;39.73;24.00;;;3.90;99.90;;;2.85;100.00;102117.88;5073799;28;20237;-73
2023/12/15 04:05:27;;;;;;;38.00;22.93;;;3.80;99.90;;;2.87;100.00;102121.31;5074110;28;20209;-73
2023/12/15 04:07:56;;;;;;;40.83;24.03;;;3.90;99.90;;;2.87;100.00;102121.31;5074085;28;20236;-73
2023/12/15 04:10:25;;;;;;;42.43;23.90;;;3.90;99.90;;;2.88;100.00;102123.84;5073909;28;20201;-73
2023/12/15 04:12:53;;;;;;;42.30;22.73;;;3.90;99.90;;;2.88;100.00;102128.28;5074271;28;20225;-73
2023/12/15 04:15:21;;;;;;;42.37;23.27;;;3.90;99.90;;;2.88;100.00;102125.66;5074241;28;20205;-73
2023/12/15 04:17:50;;;;;;;42.20;25.10;;;3.90;99.90;;;2.89;100.00;102127.38;5073760;28;20663;-73
2023/12/15 04:20:19;;;;;;;44.10;23.57;;;3.90;99.90;;;2.90;100.00;102126.44;5073779;28;20244;-73
2023/12/15 04:22:47;;;;;;;42.80;25.10;;;3.90;99.90;;;2.90;100.00;102132.59;5073729;28;20236;-73
2023/12/15 04:25:17;;;;;;;41.13;23.10;;;3.90;99.90;;;2.90;100.00;102127.31;5073867;28;20296;-73
2023/12/15 04:27:45;;;;;;;45.17;25.57;;;3.90;99.90;;;2.92;100.00;102127.22;5073758;28;20213;-73
2023/12/15 04:30:16;;;;;;;46.53;25.53;;;3.90;99.90;;;2.93;100.00;102136.88;5074578;28;20201;-73
2023/12/15 04:32:45;;;;;;;46.47;25.63;;;3.90;99.90;;;2.93;100.00;102137.72;5073367;28;20225;-73
2023/12/15 04:35:13;;;;;;;44.03;24.60;;;3.90;99.90;;;2.93;100.00;102142.16;5073656;28;20205;-73
2023/12/15 04:37:44;;;;;;;47.83;25.60;;;4.00;99.90;;;2.95;100.00;102132.34;5073661;28;20206;-73
2023/12/15 04:40:17;;;;;;;43.90;25.10;;;4.00;99.90;;;2.96;100.00;102136.69;5073695;28;20190;-73
2023/12/15 04:42:45;;;;;;;45.17;25.30;;;4.00;99.90;;;2.98;100.00;102134.81;5073474;28;20256;-73
2023/12/15 04:45:13;;;;;;;45.07;24.77;;;4.00;99.90;;;2.99;100.00;102139.19;5072106;28;20671;-73
2023/12/15 04:47:41;;;;;;;46.13;25.00;;;4.00;99.90;;;2.98;100.00;102135.69;5073538;28;20267;-73
2023/12/15 04:50:10;;;;;;;47.67;25.83;;;4.00;99.90;;;2.99;100.00;102133.91;5073452;28;20213;-73
2023/12/15 04:52:38;;;;;;;46.97;25.53;;;4.00;99.90;;;3.00;100.00;102132.97;5073418;28;20225;-73
2023/12/15 04:55:10;;;;;;;41.73;24.27;;;4.00;99.90;;;3.01;100.00;102134.69;5073170;28;20297;-73
2023/12/15 04:57:40;;;;;;;44.47;24.50;;;4.00;99.90;;;3.00;100.00;102139.13;5073022;28;20190;-73
2023/12/15 05:00:10;;;;;;;45.27;25.43;;;4.00;99.90;;;3.02;100.00;102136.38;5072643;28;20267;-73
2023/12/15 05:02:38;;;;;;;44.50;24.43;;;4.00;99.90;;;3.03;100.00;102138.09;5073220;28;20240;-73
2023/12/15 05:05:07;;;;;;;45.27;24.47;;;4.00;99.90;;;3.05;100.00;102142.38;5073415;28;20212;-73
2023/12/15 05:07:35;;;;;;;44.60;25.17;;;4.10;99.90;;;3.08;100.00;102146.69;5073295;28;20296;-73
2023/12/15 05:10:05;;;;;;;47.33;24.47;;;4.10;99.90;;;3.08;100.00;102141.38;5073621;28;20209;-73
2023/12/15 05:12:35;;;;;;;48.20;25.37;;;4.10;99.90;;;3.10;100.00;102150.09;5077107;28;20225;-73
2023/12/15 05:15:05;;;;;;;48.37;25.87;;;4.10;99.90;;;3.10;100.00;102147.44;5077431;28;20267;-73
2023/12/15 05:17:34;;;;;;;48.10;26.13;;;4.10;99.90;;;3.12;100.00;102150.84;5077246;28;20634;-73
2023/12/15 05:20:02;;;;;;;48.80;25.83;;;4.10;99.90;;;3.14;100.00;102162.25;5077026;28;20744;-73
2023/12/15 05:22:31;;;;;;;49.40;24.70;;;4.10;99.90;;;3.14;100.00;102161.38;5077103;28;20233;-73
2023/12/15 05:24:59;;;;;;;47.07;24.67;;;4.20;99.90;;;3.15;100.00;102163.94;5077306;28;20240;-74
2023/12/15 05:27:27;;;;;;;52.50;27.10;;;4.20;99.90;;;3.15;100.00;102158.63;5077204;28;20217;-74
2023/12/15 05:29:55;;;;;;;52.43;27.40;;;4.10;99.90;;;3.16;100.00;102156.84;5077062;28;20212;-74
2023/12/15 05:32:25;;;;;;;54.93;27.53;;;4.20;99.90;;;3.17;100.00;102161.22;5076840;28;20257;-74
2023/12/15 05:34:53;;;;;;;52.97;27.60;;;4.20;99.90;;;3.16;100.00;102163.00;5076961;28;20190;-74
2023/12/15 05:37:22;;;;;;;59.57;28.20;;;4.20;99.90;;;3.16;100.00;102162.16;5077118;28;20229;-74
2023/12/15 05:39:50;;;;;;;57.07;28.30;;;4.10;99.90;;;3.17;100.00;102170.00;5076831;28;20240;-74
2023/12/15 05:42:18;;;;;;;52.67;27.73;;;4.20;99.90;;;3.16;100.00;102163.00;5076387;28;20233;-73
2023/12/15 05:44:46;;;;;;;54.37;28.00;;;4.10;99.90;;;3.16;100.00;102168.28;5076938;28;20206;-73
2023/12/15 05:47:15;;;;;;;62.07;29.50;;;4.20;99.90;;;3.17;100.00;102167.38;5076843;28;20201;-73
2023/12/15 05:49:44;;;;;;;64.50;29.83;;;4.20;99.90;;;3.16;100.00;102176.22;5076745;28;20216;-73
2023/12/15 05:52:14;;;;;;;80.00;34.10;;;4.10;99.90;;;3.17;100.00;102177.97;5076628;28;20249;-73
2023/12/15 05:54:42;;;;;;;61.60;28.87;;;4.20;99.90;;;3.17;100.00;102177.09;5076352;28;20215;-73
2023/12/15 05:57:10;;;;;;;64.97;30.03;;;4.20;99.90;;;3.17;100.00;102182.38;5076464;28;20215;-73
2023/12/15 05:59:41;;;;;;;62.87;28.57;;;4.10;99.90;;;3.19;100.00;102185.81;5076656;28;20194;-73
2023/12/15 06:02:10;;;;;;;62.83;31.13;;;4.20;99.90;;;3.19;100.00;102180.50;5076030;28;20608;-73
2023/12/15 06:04:38;;;;;;;66.27;32.47;;;4.20;99.90;;;3.19;100.00;102184.00;5076455;28;20205;-73
2023/12/15 06:07:10;;;;;;;77.00;32.60;;;4.20;99.90;;;3.18;100.00;102190.25;5076479;28;20304;-73
2023/12/15 06:09:38;;;;;;;71.00;31.40;;;4.20;99.90;;;3.19;100.00;102197.25;5076364;28;20280;-73
2023/12/15 06:12:08;;;;;;;67.87;31.63;;;4.10;99.90;;;3.22;100.00;102199.72;5075975;28;20738;-73
2023/12/15 06:14:37;;;;;;;63.30;30.67;;;4.20;99.90;;;3.21;100.00;102200.69;5076341;28;20213;-74
2023/12/15 06:17:06;;;;;;;71.57;33.20;;;4.20;99.90;;;3.23;100.00;102200.59;5075886;28;20296;-74
2023/12/15 06:19:38;;;;;;;75.13;33.17;;;4.20;99.90;;;3.23;100.00;102198.81;5076178;28;20205;-74
2023/12/15 06:22:08;;;;;;;70.13;31.73;;;4.20;99.90;;;3.24;100.00;102200.53;5074713;28;20299;-74
2023/12/15 06:24:36;;;;;;;66.97;31.33;;;4.20;99.90;;;3.26;100.00;102203.94;5076583;28;20720;-74
2023/12/15 06:27:05;;;;;;;75.33;34.10;;;4.30;99.90;;;3.27;100.00;102205.66;5076053;28;20248;-74
2023/12/15 06:29:33;;;;;;;67.77;31.20;;;4.30;99.90;;;3.28;100.00;102212.69;5076038;28;20205;-74
2023/12/15 06:32:02;;;;;;;71.33;31.93;;;4.20;99.90;;;3.29;100.00;102219.66;5075476;28;20201;-74
2023/12/15 06:34:30;;;;;;;66.07;31.47;;;4.30;99.90;;;3.29;100.00;102214.38;5075604;28;20590;-74
2023/12/15 06:36:58;;;;;;;72.83;33.03;;;4.30;99.90;;;3.32;100.00;102223.97;5075862;28;20224;-74
2023/12/15 06:39:28;;;;;;;71.03;32.33;;;4.30;99.90;;;3.32;100.00;102216.84;5075840;28;20209;-74
2023/12/15 06:41:56;;;;;;;69.97;32.30;;;4.30;99.90;;;3.33;100.00;102215.94;5075619;28;20312;-74
2023/12/15 06:44:25;;;;;;;73.43;32.93;;;4.30;99.90;;;3.34;100.00;102212.38;5075753;28;20209;-74
2023/12/15 06:46:54;;;;;;;71.00;32.57;;;4.40;99.90;;;3.35;100.00;102219.38;5075613;28;20213;-74
2023/12/15 06:49:29;;;;;;;67.20;30.70;;;4.40;99.90;;;3.38;100.00;102219.22;5075630;28;20205;-74
2023/12/15 06:51:58;;;;;;;70.90;32.47;;;4.40;99.90;;;3.39;100.00;102226.19;5075653;28;20255;-74
2023/12/15 06:54:27;;;;;;;66.63;31.17;;;4.40;99.90;;;3.41;100.00;102227.00;5075295;28;20252;-74
2023/12/15 06:56:56;;;;;;;70.47;30.67;;;4.40;99.90;;;3.44;100.00;102223.31;5075536;28;20233;-74
2023/12/15 06:59:24;;;;;;;66.67;31.57;;;4.40;99.90;;;3.43;100.00;102227.75;5075157;28;20702;-74
2023/12/15 07:01:52;;;;;;;71.23;32.70;;;4.40;99.90;;;3.44;100.00;102224.19;5075298;28;20213;-74
2023/12/15 07:04:20;;;;;;;62.50;30.07;;;4.40;99.90;;;3.46;100.00;102232.03;5075150;28;20686;-74
2023/12/15 07:06:49;;;;;;;67.73;31.97;;;4.40;99.90;;;3.47;100.00;102233.75;5075374;28;20213;-74
2023/12/15 07:09:17;;;;;;;62.50;29.57;;;4.50;99.90;;;3.47;100.00;102229.31;5075265;28;20236;-74
2023/12/15 07:11:48;;;;;;;61.60;29.90;;;4.50;99.90;;;3.47;100.00;102229.31;5075172;28;20202;-74
2023/12/15 07:14:16;;;;;;;58.63;28.53;;;4.50;99.90;;;3.50;100.00;102234.47;5075175;28;20240;-74
2023/12/15 07:16:44;;;;;;;56.87;27.67;;;4.50;99.90;;;3.53;100.00;102244.03;5074831;28;20206;-74
2023/12/15 07:19:13;;;;;;;54.97;28.23;;;4.50;99.90;;;3.54;100.00;102240.44;5074780;28;20774;-74
2023/12/15 07:21:41;;;;;;;56.93;30.03;;;4.50;99.90;;;3.54;100.00;102236.03;5075041;28;20201;-74
2023/12/15 07:24:10;;;;;;;61.97;30.20;;;4.60;99.90;;;3.58;100.00;102239.38;5074567;28;20711;-74
2023/12/15 07:26:38;;;;;;;62.03;28.80;;;4.60;99.90;;;3.60;100.00;102241.94;5075108;28;20240;-74
2023/12/15 07:29:08;;;;;;;60.87;28.93;;;4.60;99.90;;;3.61;100.00;102241.84;5074959;28;20201;-74
2023/12/15 07:31:36;;;;;;;53.60;27.33;;;4.60;99.90;;;3.61;100.00;102243.63;5074570;28;20717;-74
2023/12/15 07:34:06;;;;;;;57.50;27.33;;;4.60;99.90;;;3.65;100.00;102248.72;5074047;28;20753;-74
2023/12/15 07:36:36;;;;;;;53.53;25.87;;;4.60;99.90;;;3.66;100.00;102250.44;5075016;28;20288;-74
2023/12/15 07:39:04;;;;;;;52.93;26.70;;;4.60;99.90;;;3.66;100.00;102258.38;5074716;28;20308;-74
2023/12/15 07:41:33;;;;;;;45.07;24.17;;;4.70;99.90;;;3.66;100.00;102258.38;5074811;28;20288;-74
2023/12/15 07:44:03;;;;;;;51.17;26.43;;;4.70;99.90;;;3.71;100.00;102263.41;5074532;28;20233;-74
2023/12/15 07:46:33;;;;;;;48.20;25.07;;;4.70;99.90;;;3.71;100.00;102272.22;5075303;28;20198;-74
2023/12/15 07:49:04;;;;;;;49.63;25.17;;;4.70;99.90;;;3.75;100.00;102275.56;5074444;28;20190;-74
2023/12/15 07:51:35;;;;;;;51.80;26.67;;;4.70;99.90;;;3.74;100.00;102279.16;5074116;28;20334;-74
2023/12/15 07:54:03;;;;;;;51.07;27.43;;;4.70;99.90;;;3.75;100.00;102280.88;5074135;28;20715;-74
2023/12/15 07:56:33;;;;;;;48.27;24.90;;;4.80;99.90;;;3.78;100.00;102278.06;5074420;28;20244;-74
2023/12/15 07:59:01;;;;;;;62.97;28.83;;;4.80;99.90;;;3.81;100.00;102280.53;5073969;28;20296;-74
2023/12/15 08:01:29;;;;;;;66.50;27.67;;;4.80;99.90;;;3.80;100.00;102294.75;5074587;28;20213;-74
2023/12/15 08:03:59;;;;;;;56.63;29.20;;;4.80;99.90;;;3.83;100.00;102295.44;5073999;28;20233;-64
2023/12/15 08:06:27;;;;;;;78.53;39.07;;;4.80;99.90;;;3.84;100.00;102299.78;5074073;28;20209;-71
2023/12/15 08:08:56;;;;;;;55.90;28.50;;;4.80;99.90;;;3.89;100.00;102300.41;5073817;28;20205;-71
2023/12/15 08:11:24;;;;;;;55.07;28.17;;;4.90;99.90;;;3.89;100.00;102308.38;5074053;28;20201;-72
2023/12/15 08:13:52;;;;;;;63.73;30.57;;;4.90;99.90;;;3.93;100.00;102319.66;5073614;28;20699;-72
2023/12/15 08:16:21;;;;;;;62.87;30.40;;;4.90;99.90;;;3.93;100.00;102317.88;5073636;28;20736;-72
2023/12/15 08:18:50;;;;;;;54.57;28.57;;;5.00;99.90;;;3.92;100.00;102332.06;5073916;28;20284;-72
2023/12/15 08:21:19;;;;;;;69.33;30.03;;;4.90;99.90;;;4.03;100.00;102331.50;5073911;28;20240;-72
2023/12/15 08:23:47;;;;;;;61.93;30.20;;;5.00;99.90;;;4.06;100.00;102329.56;5073560;28;20316;-72
2023/12/15 08:26:23;;;;;;;58.97;29.73;;;5.10;99.90;;;4.08;100.00;102326.81;5073813;28;20249;-72
2023/12/15 08:28:53;;;;;;;55.53;29.50;;;5.10;99.90;;;4.06;100.00;102336.63;5073796;28;20241;-72
2023/12/15 08:31:21;;;;;;;64.80;29.63;;;5.10;99.90;;;4.09;100.00;102334.69;5073400;28;20659;-72
2023/12/15 08:33:50;;;;;;;67.73;30.40;;;5.10;99.90;;;4.13;100.00;102332.72;5073408;28;20261;-72
2023/12/15 08:36:20;;;;;;;61.97;29.90;;;5.10;99.90;;;4.21;100.00;102337.63;5073827;28;20215;-72
2023/12/15 08:38:48;;;;;;;61.00;30.67;;;5.20;99.90;;;4.24;100.00;102342.78;5073638;28;20566;-72
2023/12/15 08:41:15;;;;;;;62.00;28.63;;;5.20;99.90;;;4.25;100.00;102345.31;5073650;28;20240;-72
2023/12/15 08:43:44;;;;;;;60.93;28.23;;;5.30;99.90;;;4.28;100.00;102350.47;5073432;28;20233;-72
2023/12/15 08:46:12;;;;;;;60.73;28.30;;;5.30;99.90;;;4.27;100.00;102359.38;5072819;28;20254;-72
2023/12/15 08:48:40;;;;;;;65.37;29.00;;;5.30;99.90;;;4.31;100.00;102360.06;5073602;28;20240;-72
2023/12/15 08:51:08;;;;;;;58.50;28.47;;;5.30;99.90;;;4.32;100.00;102354.69;5073545;28;20205;-72
2023/12/15 08:53:38;;;;;;;60.63;32.07;;;5.30;99.90;;;4.37;100.00;102354.44;5073368;28;20222;-72
2023/12/15 08:56:06;;;;;;;56.33;28.10;;;5.40;99.90;;;4.37;100.00;102350.00;5073095;28;20209;-72
2023/12/15 08:58:35;;;;;;;54.60;26.83;;;5.40;99.90;;;4.41;100.00;102348.91;5073419;28;20288;-72
2023/12/15 09:01:03;;;;;;;68.57;30.80;;;5.40;99.90;;;4.43;100.00;102354.97;5073088;28;20720;-72
2023/12/15 09:03:32;;;;;;;64.83;29.70;;;5.40;99.90;;;4.44;100.00;102361.13;5072901;28;20236;-72
2023/12/15 09:06:00;;;;;;;57.90;31.07;;;5.40;99.90;;;4.46;100.00;102360.09;5073357;28;20209;-66
2023/12/15 09:08:50;;;;;;;61.17;28.97;;;5.50;99.90;;;4.52;100.00;102378.34;5073342;28;20194;-74
2023/12/15 09:11:18;;;;;;;55.23;28.00;;;5.50;99.90;;;4.56;100.00;102381.69;5073402;28;20241;-74
2023/12/15 09:13:46;;;;;;;58.03;29.97;;;5.60;99.90;;;4.59;100.00;102390.34;5073258;28;20217;-74
2023/12/15 09:16:15;;;;;;;57.73;28.80;;;5.60;99.90;;;4.60;100.00;102389.41;5073550;28;20267;-74
2023/12/15 09:18:43;;;;;;;57.33;29.30;;;5.60;99.90;;;4.62;100.00;102394.66;5073256;28;20228;-74
2023/12/15 09:21:11;;;;;;;56.47;27.77;;;5.60;99.90;;;4.65;100.00;102401.56;5072980;28;20611;-74
2023/12/15 09:23:39;;;;;;;56.50;27.10;;;5.60;99.90;;;4.62;100.00;102402.59;5073088;28;20419;-74
2023/12/15 09:26:09;;;;;;;50.33;27.37;;;5.60;99.90;;;4.66;100.00;102408.59;5073232;28;20202;-74
2023/12/15 09:28:38;;;;;;;49.50;28.47;;;5.70;99.90;;;4.68;100.00;102415.53;5073181;28;20212;-74
2023/12/15 09:31:06;;;;;;;57.30;27.63;;;5.70;99.90;;;4.75;100.00;102418.72;5073144;28;20205;-74
2023/12/15 09:33:34;;;;;;;54.37;27.17;;;5.70;99.90;;;4.72;100.00;102424.19;5072672;28;20265;-74
2023/12/15 09:36:03;;;;;;;49.53;25.23;;;5.70;99.90;;;4.73;100.00;102423.22;5073157;28;20282;-74
2023/12/15 09:38:31;;;;;;;49.83;26.90;;;5.70;99.90;;;4.74;100.00;102430.25;5073123;28;20202;-74
2023/12/15 09:41:00;;;;;;;52.87;26.43;;;5.80;99.90;;;4.77;100.00;102436.25;5073933;28;20201;-74
2023/12/15 09:43:29;;;;;;;51.20;27.13;;;5.80;99.90;;;4.77;100.00;102451.31;5072601;28;20282;-74
2023/12/15 09:46:00;;;;;;;50.43;26.73;;;5.80;99.90;;;4.79;100.00;102452.97;5073042;28;20233;-74
2023/12/15 09:48:29;;;;;;;53.83;26.00;;;5.80;99.90;;;4.77;100.00;102465.44;5072978;28;20205;-74
2023/12/15 09:51:03;;;;;;;61.93;27.23;;;5.80;99.90;;;4.80;100.00;102483.84;5073006;28;20297;-74
2023/12/15 09:53:37;;;;;;;56.37;29.13;;;5.80;99.90;;;4.91;100.00;102484.16;5073011;28;20279;-74
2023/12/15 09:56:07;;;;;;;52.77;26.43;;;5.90;99.90;;;4.89;100.00;102491.34;5073304;28;20189;-74
2023/12/15 09:58:38;;;;;;;56.13;27.90;;;5.90;99.90;;;4.90;100.00;102492.19;5076623;28;20233;-74
2023/12/15 10:01:07;;;;;;;66.07;30.93;;;5.90;99.90;;;4.94;100.00;102491.09;5076318;28;20591;-74
2023/12/15 10:03:35;;;;;;;54.07;28.67;;;5.90;99.90;;;4.94;100.00;102494.59;5076102;28;20311;-74
2023/12/15 10:06:03;;;;;;;52.57;27.37;;;5.90;99.90;;;4.98;100.00;102500.59;5076301;28;20271;-75
2023/12/15 10:08:41;;;;;;;64.13;29.77;;;6.00;99.90;;;5.00;100.00;102490.78;5076089;28;20672;-74
2023/12/15 10:11:32;;;;;;;64.63;29.00;;;6.00;99.90;;;5.02;100.00;102492.41;5076462;28;20243;-74